METAR Data
IDs: Format: Raw Decoded Include TAF

Data at: 1309 UTC 16 Jul 2019

KDMN 161253Z AUTO 32005KT 10SM CLR 23/09 A3004 RMK AO2 SLP082 T02280089
KDMN 161153Z AUTO 35004KT 10SM CLR 22/08 A3002 RMK AO2 SLP074 T02220083 10311 20211 53002
KDMN 161053Z AUTO 29004KT 10SM CLR 22/09 A3001 RMK AO2 SLP073 T02170089
KDMN 160953Z AUTO 00000KT 10SM CLR 23/08 A3001 RMK AO2 SLP071 T02280078
KDMN 160853Z AUTO 31006KT 10SM CLR 25/08 A3002 RMK AO2 SLP069 T02500083 58007
KDMN 160753Z AUTO 33005KT 10SM CLR 28/08 A3003 RMK AO2 SLP073 T02780078
KDMN 160653Z AUTO 35005KT 10SM CLR 29/08 A3004 RMK AO2 SLP076 T02890078 403890194
KDMN 160553Z AUTO 33007KT 10SM CLR 31/08 A3004 RMK AO2 SLP076 T03060078 10389 20294 51016
KDMN 160453Z AUTO 29008KT 10SM CLR 31/08 A3003 RMK AO2 SLP074 T03060078
KDMN 160353Z AUTO 26016G20KT 10SM CLR 31/08 A3002 RMK AO2 SLP073 T03110083
KDMN 160253Z AUTO 30014KT 10SM CLR 33/08 A2999 RMK AO2 WSHFT 0213 SLP062 T03280078 53007
KDMN 160233Z AUTO 31016G23KT 10SM CLR 33/08 A2998 RMK AO2 WSHFT 0213 T03330078
KDMN 160153Z AUTO 19003KT 10SM CLR 36/03 A2996 RMK AO2 SLP054 T03610033
KDMN 160053Z AUTO 00000KT 10SM CLR 37/03 A2996 RMK AO2 SLP056 T03720033
KDMN 152353Z AUTO VRB06KT 10SM CLR 39/03 A2996 RMK AO2 SLP056 T03890033 10389 20344 56018
KDMN 152253Z AUTO 16006KT 10SM CLR 38/03 A2998 RMK AO2 SLP061 T03830033
KDMN 152153Z AUTO VRB05KT 10SM CLR 38/05 A3000 RMK AO2 SLP066 T03780050
KDMN 152053Z AUTO VRB05KT 10SM CLR 38/06 A3002 RMK AO2 SLP072 T03830061 58022
KDMN 151953Z AUTO 28006KT 10SM CLR 37/06 A3005 RMK AO2 SLP084 T03670056
KDMN 151853Z AUTO VRB05KT 10SM CLR 36/06 A3008 RMK AO2 SLP090 T03610056
KDMN 151753Z AUTO 13007KT 10SM CLR 35/06 A3010 RMK AO2 SLP098 T03500061 10350 20194 58008
KDMN 151653Z AUTO 10006KT 10SM CLR 33/07 A3012 RMK AO2 SLP105 T03280067
KDMN 151553Z AUTO 10006KT 10SM CLR 31/08 A3012 RMK AO2 SLP108 T03110078
KDMN 151453Z AUTO 09006KT 10SM CLR 28/10 A3013 RMK AO2 SLP114 T02830100 51008
KDMN 151353Z AUTO 05005KT 10SM CLR 26/10 A3012 RMK AO2 SLP110 T02560100
KDMN 151253Z AUTO 00000KT 10SM CLR 22/09 A3011 RMK AO2 SLP109 T02170089
KDMN 151153Z AUTO 00000KT 10SM CLR 20/09 A3010 RMK AO2 SLP108 T02000089 10283 20200 53002
KDMN 151053Z AUTO 23005KT 10SM CLR 22/08 A3009 RMK AO2 SLP103 T02170083
KDMN 150953Z AUTO 00000KT 10SM CLR 24/08 A3009 RMK AO2 SLP098 T02440078
KDMN 150853Z AUTO 30008KT 10SM CLR 25/09 A3009 RMK AO2 SLP097 T02500089 52001
KDMN 150753Z AUTO 12004KT 10SM CLR 26/08 A3008 RMK AO2 SLP095 T02560083
KDMN 150653Z AUTO 30006KT 10SM CLR 27/09 A3009 RMK AO2 SLP098 T02720089 403830206
KDMN 150553Z AUTO 31005KT 10SM CLR 28/08 A3009 RMK AO2 SLP096 T02830083 10344 20272 58000
KDMN 150453Z AUTO 08008KT 10SM CLR 30/08 A3008 RMK AO2 SLP093 T03000083
KDMN 150353Z AUTO 09014KT 10SM FEW120 29/10 A3010 RMK AO2 SLP102 T02940100
KDMN 150253Z AUTO 06017G21KT 10SM BKN120 29/09 A3009 RMK AO2 WSHFT 0158 LTG DSNT E SLP100 T02940094 53014
KDMN 150218Z AUTO 04014KT 10SM BKN120 31/11 A3007 RMK AO2 WSHFT 0158 T03060106
KDMN 150153Z AUTO 34008KT 10SM FEW120 34/06 A3005 RMK AO2 LTG DSNT NE SLP082 T03440061